Time;durP1;ratioP1;P1;durP2;ratioP2;P2;SDS_P1;SDS_P2;PMS_P1;PMS_P2;Temp;Humidity;BMP_temperature;BMP_pressure;BME280_temperature;BME280_humidity;BME280_pressure;Samples;Min_cycle;Max_cycle;Signal;HPM_P1;HPM_P2
2022/09/28 00:02:14;;;;;;;1.05;0.52;;;;;;;7.06;100.00;94165.59;4973180;28;20785;-73
2022/09/28 00:04:40;;;;;;;1.80;0.70;;;;;;;7.10;100.00;94156.72;4978127;28;21150;-74
2022/09/28 00:07:07;;;;;;;2.15;0.80;;;;;;;7.06;100.00;94143.25;4973105;28;21132;-74
2022/09/28 00:09:33;;;;;;;0.82;0.50;;;;;;;7.07;100.00;94146.63;4972998;28;20784;-73
2022/09/28 00:12:01;;;;;;;1.20;0.55;;;;;;;7.05;100.00;94141.63;4975159;28;20781;-73
2022/09/28 00:14:31;;;;;;;1.90;0.75;;;;;;;6.99;100.00;94135.16;4971495;28;21380;-74
2022/09/28 00:16:57;;;;;;;1.63;0.70;;;;;;;7.07;100.00;94129.44;4975358;28;20867;-73
2022/09/28 00:19:24;;;;;;;1.75;0.70;;;;;;;7.07;100.00;94133.75;4970981;28;25038;-74
2022/09/28 00:21:50;;;;;;;4.97;0.80;;;;;;;7.05;100.00;94126.16;4976489;28;24437;-73
2022/09/28 00:24:17;;;;;;;0.80;0.70;;;;;;;7.11;100.00;94109.44;4971222;28;24471;-74
2022/09/28 00:26:46;;;;;;;1.77;0.67;;;;;;;7.11;100.00;94112.00;4977777;28;24442;-73
2022/09/28 00:29:18;;;;;;;0.98;0.57;;;;;;;7.13;100.00;94110.13;4971609;28;20806;-73
2022/09/28 00:31:45;;;;;;;2.20;0.70;;;;;;;7.19;100.00;94095.06;4977709;28;21620;-74
2022/09/28 00:34:12;;;;;;;1.17;0.77;;;;;;;7.22;100.00;94094.78;4971742;28;20778;-74
2022/09/28 00:36:39;;;;;;;1.10;0.60;;;;;;;7.21;100.00;94090.59;4972747;28;20795;-74
2022/09/28 00:39:07;;;;;;;1.00;0.50;;;;;;;7.30;100.00;94083.09;4972659;28;20778;-74
2022/09/28 00:41:35;;;;;;;3.25;0.70;;;;;;;7.35;100.00;94074.09;4979641;28;20770;-74
2022/09/28 00:44:39;;;;;;;0.65;0.50;;;;;;;7.38;100.00;94060.97;4972863;28;20804;-74
2022/09/28 00:47:18;;;;;;;2.20;0.75;;;;;;;7.42;100.00;94054.66;4974168;28;24440;-74
2022/09/28 00:49:49;;;;;;;1.23;0.63;;;;;;;7.50;100.00;94052.28;4974559;28;24442;-74
2022/09/28 00:52:22;;;;;;;1.05;0.60;;;;;;;7.40;100.00;94048.78;4965596;28;21177;-74
2022/09/28 00:54:51;;;;;;;1.45;0.55;;;;;;;7.36;100.00;94037.09;4965289;28;24438;-74
2022/09/28 00:57:18;;;;;;;1.73;0.68;;;;;;;7.44;100.00;94036.50;4965532;28;24990;-74
2022/09/28 00:59:46;;;;;;;1.10;0.60;;;;;;;7.41;100.00;94036.72;4975172;28;24777;-74
2022/09/28 01:02:13;;;;;;;3.03;0.80;;;;;;;7.43;100.00;94033.09;4966736;28;20766;-73
2022/09/28 01:04:39;;;;;;;0.95;0.57;;;;;;;7.43;100.00;94029.72;4976155;28;24441;-74
2022/09/28 01:07:08;;;;;;;1.75;0.73;;;;;;;7.42;100.00;94023.75;4971203;28;24429;-74
2022/09/28 01:09:38;;;;;;;1.38;0.50;;;;;;;7.44;100.00;94024.44;4979433;28;20863;-74
2022/09/28 01:12:05;;;;;;;5.25;0.60;;;;;;;7.40;100.00;94015.31;4962432;28;20777;-74
2022/09/28 01:14:32;;;;;;;2.40;0.50;;;;;;;7.43;100.00;94009.09;4987558;28;24440;-74
2022/09/28 01:17:07;;;;;;;2.22;0.55;;;;;;;7.45;100.00;94008.06;4972771;28;24444;-74
2022/09/28 01:20:06;;;;;;;2.45;0.63;;;;;;;7.46;100.00;94004.53;4979679;28;24532;-74
2022/09/28 01:22:58;;;;;;;1.55;0.75;;;;;;;7.48;100.00;94007.78;4968395;28;20826;-74
2022/09/28 01:25:38;;;;;;;2.33;0.50;;;;;;;7.55;100.00;93997.00;4964350;28;20691;-74
2022/09/28 01:28:08;;;;;;;0.80;0.50;;;;;;;7.57;100.00;93992.56;4971874;28;24433;-74
2022/09/28 01:30:43;;;;;;;0.98;0.57;;;;;;;7.56;100.00;93990.91;4970504;28;20751;-74
2022/09/28 01:33:14;;;;;;;1.60;0.55;;;;;;;7.60;100.00;93980.25;4980310;28;20821;-74
2022/09/28 01:35:45;;;;;;;0.50;0.40;;;;;;;7.67;100.00;93983.16;4971651;28;24693;-74
2022/09/28 01:38:16;;;;;;;1.17;0.50;;;;;;;7.65;100.00;93967.00;4979763;28;21206;-74
2022/09/28 01:40:43;;;;;;;2.85;0.50;;;;;;;7.71;100.00;93974.22;4971364;28;20743;-74
2022/09/28 01:43:14;;;;;;;2.72;0.50;;;;;;;7.76;100.00;93964.38;4979756;28;20776;-74
2022/09/28 01:45:45;;;;;;;0.98;0.40;;;;;;;7.74;100.00;93959.34;4971362;28;24445;-74
2022/09/28 01:48:17;;;;;;;0.90;0.40;;;;;;;7.73;100.00;93964.63;4980059;28;20777;-74
2022/09/28 01:50:46;;;;;;;2.53;0.60;;;;;;;7.69;100.00;93953.75;4971013;28;24469;-74
2022/09/28 01:53:19;;;;;;;2.03;0.57;;;;;;;7.73;100.00;93949.16;4979365;28;24444;-74
2022/09/28 01:55:49;;;;;;;1.50;0.52;;;;;;;7.68;100.00;93943.59;4971977;28;20668;-74
2022/09/28 01:58:23;;;;;;;1.40;0.60;;;;;;;7.74;100.00;93941.31;4978698;28;20816;-74
2022/09/28 02:00:59;;;;;;;1.90;0.70;;;;;;;7.72;100.00;93939.81;4971665;28;25231;-73
2022/09/28 02:03:32;;;;;;;1.50;0.70;;;;;;;7.82;100.00;93937.28;4971143;28;21377;-74
2022/09/28 02:06:02;;;;;;;1.65;0.60;;;;;;;7.77;100.00;93927.38;4974706;28;20775;-74
2022/09/28 02:08:34;;;;;;;1.80;0.75;;;;;;;7.82;100.00;93930.38;4972652;28;20671;-74
2022/09/28 02:11:05;;;;;;;2.10;0.68;;;;;;;7.78;100.00;93918.69;4972694;28;20834;-74
2022/09/28 02:13:37;;;;;;;2.08;0.88;;;;;;;7.82;100.00;93919.25;4972673;28;24440;-74
2022/09/28 02:16:09;;;;;;;4.57;0.80;;;;;;;7.85;100.00;93916.44;4976057;28;20775;-74
2022/09/28 02:18:36;;;;;;;2.47;0.70;;;;;;;7.87;100.00;93917.13;4979785;28;24433;-74
2022/09/28 02:21:09;;;;;;;2.08;0.57;;;;;;;7.90;100.00;93914.31;4977075;28;20795;-74
2022/09/28 02:23:39;;;;;;;1.65;0.77;;;;;;;7.96;100.00;93909.44;4979752;28;24440;-74
2022/09/28 02:26:11;;;;;;;3.87;1.10;;;;;;;7.98;100.00;93909.34;4972745;28;20817;-74
2022/09/28 02:28:39;;;;;;;2.92;1.02;;;;;;;7.99;100.00;93910.97;4981520;28;21365;-74
2022/09/28 02:31:06;;;;;;;1.85;0.85;;;;;;;8.08;100.00;93906.81;4966223;28;20830;-73
2022/09/28 02:33:37;;;;;;;5.25;0.80;;;;;;;8.14;100.00;93907.13;4967151;28;24440;-74
2022/09/28 02:36:04;;;;;;;3.00;0.75;;;;;;;8.14;100.00;93906.31;4974801;28;20815;-74
2022/09/28 02:38:31;;;;;;;1.90;0.70;;;;;;;8.19;100.00;93909.31;4968045;28;20778;-74
2022/09/28 02:41:04;;;;;;;3.40;0.90;;;;;;;8.22;100.00;93911.63;4977058;28;20776;-74
2022/09/28 02:43:37;;;;;;;0.98;0.55;;;;;;;8.12;100.00;93903.88;4961059;28;20731;-74
2022/09/28 02:46:16;;;;;;;2.00;0.82;;;;;;;8.09;100.00;93904.13;4972695;28;20697;-74
2022/09/28 02:48:58;;;;;;;5.40;2.72;;;;;;;8.12;100.00;93897.88;4967869;28;20705;-74
2022/09/28 02:51:34;;;;;;;2.70;1.20;;;;;;;8.12;100.00;93908.19;4969726;28;20719;-74
2022/09/28 02:54:23;;;;;;;2.25;1.25;;;;;;;8.05;100.00;93899.34;4969831;28;21507;-74
2022/09/28 02:57:02;;;;;;;6.53;3.50;;;;;;;8.04;100.00;93889.94;4975351;28;21204;-74
2022/09/28 02:59:42;;;;;;;4.47;1.63;;;;;;;8.00;100.00;93895.34;4967093;28;21084;-74
2022/09/28 03:02:20;;;;;;;6.63;3.70;;;;;;;8.04;100.00;93880.44;4975460;28;20670;-74
2022/09/28 03:05:01;;;;;;;4.15;2.83;;;;;;;8.03;100.00;93886.56;4970255;28;20703;-74
2022/09/28 03:07:32;;;;;;;2.80;0.73;;;;;;;7.99;100.00;93880.84;4978693;28;20662;-74
2022/09/28 03:10:03;;;;;;;2.28;0.80;;;;;;;8.03;100.00;93883.97;4970128;28;20807;-74
2022/09/28 03:12:30;;;;;;;1.92;1.00;;;;;;;8.01;100.00;93880.72;4976433;28;20744;-74
2022/09/28 03:15:07;;;;;;;2.50;1.35;;;;;;;7.99;100.00;93887.75;4970114;28;20774;-74
2022/09/28 03:17:35;;;;;;;4.00;0.95;;;;;;;7.95;100.00;93881.22;4977724;28;21045;-74
2022/09/28 03:20:02;;;;;;;4.13;1.90;;;;;;;8.00;100.00;93877.31;4969487;28;24445;-74
2022/09/28 03:22:28;;;;;;;5.78;2.88;;;;;;;8.03;100.00;93875.44;4977397;28;21188;-74
2022/09/28 03:24:55;;;;;;;4.57;1.50;;;;;;;8.06;100.00;93880.34;4970429;28;20817;-74
2022/09/28 03:27:21;;;;;;;1.95;0.88;;;;;;;7.98;100.00;93879.22;4977194;28;24437;-74
2022/09/28 03:29:48;;;;;;;2.88;1.50;;;;;;;7.98;100.00;93880.97;4969913;28;24445;-74
2022/09/28 03:32:15;;;;;;;2.08;1.50;;;;;;;7.94;100.00;93880.41;4977744;28;20789;-74
2022/09/28 03:34:43;;;;;;;3.92;1.80;;;;;;;7.98;100.00;93884.38;4966830;28;24441;-74
2022/09/28 03:37:09;;;;;;;4.03;2.80;;;;;;;7.95;100.00;93886.38;4978075;28;21436;-74
2022/09/28 03:39:36;;;;;;;5.80;2.67;;;;;;;8.00;100.00;93885.03;4970706;28;24482;-74
2022/09/28 03:42:02;;;;;;;2.97;2.20;;;;;;;7.96;100.00;93881.09;4978705;28;20808;-74
2022/09/28 03:44:29;;;;;;;8.47;5.20;;;;;;;7.95;100.00;93883.81;4971308;28;21420;-74
2022/09/28 03:46:55;;;;;;;9.95;5.97;;;;;;;7.94;100.00;93882.19;4977870;28;24982;-74
2022/09/28 03:49:22;;;;;;;4.00;2.58;;;;;;;7.97;100.00;93881.91;4971467;28;20803;-74
2022/09/28 03:51:49;;;;;;;2.83;1.42;;;;;;;7.96;100.00;93883.66;4977150;28;20801;-74
2022/09/28 03:54:16;;;;;;;1.33;0.57;;;;;;;7.95;100.00;93887.19;4972062;28;21356;-73
2022/09/28 03:56:42;;;;;;;2.00;1.60;;;;;;;8.05;100.00;93887.25;4976802;28;25049;-74
2022/09/28 03:59:09;;;;;;;2.97;1.73;;;;;;;8.04;100.00;93887.38;4972730;28;24445;-74
2022/09/28 04:01:35;;;;;;;1.00;0.30;;;;;;;8.05;100.00;93884.69;4976757;28;24433;-74
2022/09/28 04:04:02;;;;;;;1.30;0.40;;;;;;;7.97;100.00;93890.47;4973227;28;24436;-73
2022/09/28 04:06:28;;;;;;;1.40;0.60;;;;;;;7.86;100.00;93874.25;4977480;28;20782;-74
2022/09/28 04:08:56;;;;;;;1.00;0.52;;;;;;;7.85;100.00;93891.47;4972719;28;24455;-73
2022/09/28 04:11:23;;;;;;;1.25;0.50;;;;;;;7.82;100.00;93888.31;4972527;28;24458;-73
2022/09/28 04:13:50;;;;;;;1.80;0.52;;;;;;;7.71;100.00;93891.78;4970386;28;24770;-73
2022/09/28 04:16:17;;;;;;;1.50;0.30;;;;;;;7.78;100.00;93880.03;4978436;28;20764;-73
2022/09/28 04:18:44;;;;;;;0.40;0.20;;;;;;;7.68;100.00;93879.16;4972344;28;24448;-73
2022/09/28 04:21:12;;;;;;;0.40;0.30;;;;;;;7.62;100.00;93897.69;4979730;28;20771;-74
2022/09/28 04:23:39;;;;;;;0.32;0.15;;;;;;;7.61;100.00;93890.91;4971015;28;20832;-76
2022/09/28 04:26:11;;;;;;;1.67;0.30;;;;;;;7.51;100.00;93896.78;4968708;28;24445;-73
2022/09/28 04:31:23;;;;;;;0.43;0.20;;;;;;;7.57;100.00;93889.53;4968725;28;20738;-72
2022/09/28 04:33:50;;;;;;;0.85;0.30;;;;;;;7.67;100.00;93893.78;4976851;28;21150;-73
2022/09/28 04:36:18;;;;;;;0.40;0.17;;;;;;;7.73;100.00;93895.88;4968232;28;20778;-74
2022/09/28 04:38:45;;;;;;;0.80;0.30;;;;;;;7.57;100.00;93900.66;4970645;28;24502;-74
2022/09/28 04:41:12;;;;;;;1.00;0.30;;;;;;;7.51;100.00;93894.22;4971215;28;24429;-74
2022/09/28 04:43:39;;;;;;;0.52;0.30;;;;;;;7.63;100.00;93894.97;4976854;28;21203;-74
2022/09/28 04:46:05;;;;;;;1.30;0.57;;;;;;;7.49;100.00;93896.13;4982301;28;21139;-74
2022/09/28 04:48:32;;;;;;;0.60;0.20;;;;;;;7.70;100.00;93883.22;4976492;28;20809;-74
2022/09/28 04:51:00;;;;;;;0.88;0.47;;;;;;;7.72;100.00;93885.69;4984004;28;24446;-73
2022/09/28 04:53:27;;;;;;;0.80;0.45;;;;;;;7.80;100.00;93883.31;4969533;28;24440;-73
2022/09/28 04:55:59;;;;;;;1.23;0.40;;;;;;;7.82;100.00;93889.13;4989927;28;24847;-72
2022/09/28 04:58:27;;;;;;;0.60;0.30;;;;;;;7.78;100.00;93894.66;4967444;28;20861;-73
2022/09/28 05:00:57;;;;;;;0.82;0.50;;;;;;;7.67;100.00;93905.84;4982314;28;20767;-73
2022/09/28 05:03:24;;;;;;;7.35;0.60;;;;;;;7.67;100.00;93909.25;4975010;28;20736;-73
2022/09/28 05:05:50;;;;;;;0.60;0.40;;;;;;;7.68;100.00;93908.31;4984357;28;24433;-73
2022/09/28 05:08:17;;;;;;;0.95;0.40;;;;;;;7.64;100.00;93904.38;4974275;28;20777;-73
2022/09/28 05:10:45;;;;;;;5.60;0.40;;;;;;;7.63;100.00;93894.16;4983724;28;24543;-72
2022/09/28 05:13:12;;;;;;;1.52;0.30;;;;;;;7.64;100.00;93899.22;4968505;28;20832;-72
2022/09/28 05:15:41;;;;;;;3.85;0.30;;;;;;;7.54;100.00;93893.16;4977786;28;21342;-72
2022/09/28 05:18:08;;;;;;;3.17;0.30;;;;;;;7.73;100.00;93898.44;4970110;28;21383;-73
2022/09/28 05:20:40;;;;;;;0.95;0.20;;;;;;;7.71;100.00;93890.03;4978499;28;24810;-74
2022/09/28 05:23:09;;;;;;;0.20;0.10;;;;;;;7.81;100.00;93890.09;4988081;28;20742;-73
2022/09/28 05:25:35;;;;;;;1.05;0.40;;;;;;;7.70;100.00;93905.59;4984092;28;20764;-73
2022/09/28 05:28:02;;;;;;;1.15;0.30;;;;;;;7.71;100.00;93907.22;4988856;28;24440;-73
2022/09/28 05:30:29;;;;;;;1.00;0.50;;;;;;;7.55;100.00;93924.88;4986902;28;21652;-73
2022/09/28 05:32:57;;;;;;;1.25;0.55;;;;;;;7.66;100.00;93917.91;4997250;28;20788;-73
2022/09/28 05:35:23;;;;;;;2.00;0.40;;;;;;;7.60;100.00;93922.75;4988895;28;20920;-72
2022/09/28 05:37:50;;;;;;;1.53;0.50;;;;;;;7.52;100.00;93921.59;4977945;28;20815;-73
2022/09/28 05:40:16;;;;;;;2.03;0.70;;;;;;;7.57;100.00;93930.75;4978563;28;20793;-73
2022/09/28 05:42:43;;;;;;;1.17;0.60;;;;;;;7.62;100.00;93933.75;4980442;28;24425;-73
2022/09/28 05:45:10;;;;;;;1.05;0.50;;;;;;;7.68;100.00;93926.34;4975666;28;20788;-73
2022/09/28 05:47:38;;;;;;;1.10;0.30;;;;;;;7.77;100.00;93932.50;4969926;28;20816;-72
2022/09/28 05:50:07;;;;;;;0.45;0.30;;;;;;;7.82;100.00;93932.13;4981509;28;24473;-72
2022/09/28 05:52:34;;;;;;;0.95;0.50;;;;;;;7.89;100.00;93925.53;4979451;28;20747;-73
2022/09/28 05:55:01;;;;;;;0.60;0.40;;;;;;;7.94;100.00;93929.41;4979964;28;24442;-73
2022/09/28 05:57:28;;;;;;;1.55;0.50;;;;;;;7.95;100.00;93917.31;4979892;28;21177;-73
2022/09/28 05:59:55;;;;;;;0.93;0.50;;;;;;;8.06;100.00;93924.16;4987610;28;24433;-72
2022/09/28 06:02:21;;;;;;;0.80;0.50;;;;;;;8.00;100.00;93931.44;4989780;28;20770;-73
2022/09/28 06:04:49;;;;;;;0.40;0.30;;;;;;;8.00;100.00;93934.03;4989564;28;24448;-72
2022/09/28 06:07:17;;;;;;;0.85;0.55;;;;;;;8.05;100.00;93928.50;4992182;28;20836;-73
2022/09/28 06:09:44;;;;;;;0.90;0.80;;;;;;;8.04;100.00;93932.00;4990644;28;24503;-71
2022/09/28 06:12:10;;;;;;;1.38;1.00;;;;;;;8.00;100.00;93933.22;4983492;28;24453;-72
2022/09/28 06:14:37;;;;;;;1.73;1.02;;;;;;;8.02;100.00;93927.94;4989031;28;24436;-73
2022/09/28 06:17:04;;;;;;;3.92;1.00;;;;;;;8.03;100.00;93932.97;4989362;28;20784;-72
2022/09/28 06:19:30;;;;;;;1.23;0.80;;;;;;;8.07;100.00;93933.53;4988863;28;24460;-74
2022/09/28 06:21:57;;;;;;;0.80;0.60;;;;;;;8.03;100.00;93942.47;4987733;28;24432;-73
2022/09/28 06:24:25;;;;;;;1.15;0.70;;;;;;;8.05;100.00;93940.59;4983468;28;21135;-72
2022/09/28 06:26:52;;;;;;;1.10;0.60;;;;;;;7.99;100.00;93955.59;4987203;28;25076;-72
2022/09/28 06:29:18;;;;;;;2.20;1.08;;;;;;;8.08;100.00;93946.28;4980269;28;24463;-71
2022/09/28 06:31:46;;;;;;;3.20;1.60;;;;;;;8.13;100.00;93954.47;4988881;28;24460;-73
2022/09/28 06:34:13;;;;;;;4.93;2.30;;;;;;;8.13;100.00;93959.63;4988239;28;25033;-72
2022/09/28 06:36:39;;;;;;;6.93;4.60;;;;;;;8.05;100.00;93963.78;4989200;28;20825;-72
2022/09/28 06:39:06;;;;;;;7.82;2.80;;;;;;;7.99;100.00;93959.94;4986792;28;20780;-73
2022/09/28 06:41:34;;;;;;;4.90;4.07;;;;;;;8.03;100.00;93958.75;4989430;28;20772;-73
2022/09/28 06:44:02;;;;;;;2.95;1.92;;;;;;;8.06;100.00;93963.66;4981109;28;20867;-73
2022/09/28 06:46:30;;;;;;;2.97;2.30;;;;;;;8.05;100.00;93969.78;4980978;28;20843;-73
2022/09/28 06:48:56;;;;;;;4.10;3.50;;;;;;;8.09;100.00;93973.72;4988194;28;20777;-73
2022/09/28 06:51:23;;;;;;;3.57;2.60;;;;;;;7.96;100.00;93965.34;4985802;28;24501;-73
2022/09/28 06:53:52;;;;;;;1.63;1.30;;;;;;;8.12;100.00;93975.22;4975480;28;24520;-73
2022/09/28 06:56:19;;;;;;;1.48;1.10;;;;;;;8.17;100.00;93980.84;4975806;28;20832;-74
2022/09/28 06:58:47;;;;;;;1.85;0.90;;;;;;;8.20;100.00;93975.44;4980619;28;20846;-73
2022/09/28 07:01:14;;;;;;;1.17;0.93;;;;;;;8.23;100.00;93976.00;4982660;28;20822;-73
2022/09/28 07:03:40;;;;;;;1.90;0.90;;;;;;;8.21;100.00;93980.44;4973980;28;24440;-72
2022/09/28 07:06:11;;;;;;;4.82;1.30;;;;;;;7.89;100.00;93988.22;4980801;28;21142;-73
2022/09/28 07:08:37;;;;;;;3.42;1.10;;;;;;;7.91;100.00;94006.97;4979317;28;20727;-72
2022/09/28 07:11:06;;;;;;;3.55;1.40;;;;;;;7.76;100.00;94018.50;4983726;28;24440;-72
2022/09/28 07:13:33;;;;;;;1.92;0.80;;;;;;;7.52;100.00;94022.06;4985729;28;20792;-72
2022/09/28 07:16:01;;;;;;;9.07;1.13;;;;;;;7.47;100.00;94023.38;4956507;28;24443;-72
2022/09/28 07:18:27;;;;;;;2.10;1.02;;;;;;;7.51;100.00;94015.28;4976649;28;20855;-72
2022/09/28 07:20:56;;;;;;;4.72;2.28;;;;;;;7.38;100.00;94027.50;4972737;28;25108;-73
2022/09/28 07:23:23;;;;;;;4.80;1.30;;;;;;;7.34;100.00;94028.69;4974468;28;24850;-72
2022/09/28 07:25:49;;;;;;;3.58;1.10;;;;;;;7.33;100.00;94023.63;4978083;28;24881;-72
2022/09/28 07:28:17;;;;;;;3.20;0.85;;;;;;;7.38;100.00;94030.06;4975623;28;24464;-73
2022/09/28 07:30:44;;;;;;;1.93;0.90;;;;;;;7.42;100.00;94038.38;4979272;28;24505;-73
2022/09/28 07:33:14;;;;;;;3.60;1.23;;;;;;;7.37;100.00;94041.28;4978478;28;24461;-72
2022/09/28 07:35:41;;;;;;;3.70;1.05;;;;;;;7.42;100.00;94041.78;4972253;28;25032;-72
2022/09/28 07:38:10;;;;;;;5.18;1.08;;;;;;;7.49;100.00;94050.66;4974028;28;24492;-72
2022/09/28 07:43:21;;;;;;;2.63;1.00;;;;;;;7.63;100.00;94057.28;4963774;28;24445;-72
2022/09/28 07:45:49;;;;;;;3.40;0.93;;;;;;;7.60;100.00;94054.13;4969629;28;24445;-72
2022/09/28 07:48:17;;;;;;;4.05;1.00;;;;;;;7.62;100.00;94057.41;4974704;28;24437;-71
2022/09/28 07:50:50;;;;;;;2.95;1.20;;;;;;;7.70;100.00;94071.34;4968762;28;20816;-72
2022/09/28 07:53:17;;;;;;;3.10;1.00;;;;;;;7.69;100.00;94076.63;4974446;28;24449;-73
2022/09/28 07:55:43;;;;;;;4.60;1.40;;;;;;;7.69;100.00;94074.03;4969043;28;24464;-73
2022/09/28 07:58:10;;;;;;;3.65;1.30;;;;;;;7.75;100.00;94082.13;4974948;28;25030;-73
2022/09/28 08:00:37;;;;;;;3.95;1.30;;;;;;;7.82;100.00;94082.44;4968898;28;24826;-74
2022/09/28 08:03:03;;;;;;;4.80;1.23;;;;;;;7.84;100.00;94083.13;4974947;28;24465;-72
2022/09/28 08:05:34;;;;;;;4.97;1.40;;;;;;;7.99;100.00;94081.09;4969289;28;24438;-72
2022/09/28 08:08:02;;;;;;;4.25;1.80;;;;;;;8.06;100.00;94089.19;4975354;28;24523;-72
2022/09/28 08:10:28;;;;;;;5.20;1.80;;;;;;;8.13;100.00;94091.16;4968439;28;24461;-72
2022/09/28 08:12:55;;;;;;;3.33;1.20;;;;;;;8.20;100.00;94088.91;4973963;28;24542;-72
2022/09/28 08:15:22;;;;;;;2.25;1.30;;;;;;;8.32;100.00;94098.22;4972035;28;20875;-72
2022/09/28 08:17:49;;;;;;;3.70;1.33;;;;;;;8.39;100.00;94096.81;4978387;28;24799;-72
2022/09/28 08:23:04;;;;;;;3.90;1.27;;;;;;;8.31;100.00;94101.75;4979063;28;20692;-73
2022/09/28 08:25:30;;;;;;;3.55;1.30;;;;;;;8.32;100.00;94100.81;4973114;28;20774;-69
2022/09/28 08:27:57;;;;;;;4.05;1.08;;;;;;;8.43;100.00;94102.56;4990453;28;24950;-73
2022/09/28 08:30:23;;;;;;;4.88;1.33;;;;;;;8.55;100.00;94105.88;4978165;28;24703;-73
2022/09/28 08:32:50;;;;;;;3.85;1.33;;;;;;;8.59;100.00;94104.69;4979808;28;24460;-73
2022/09/28 08:35:16;;;;;;;5.00;1.52;;;;;;;8.48;100.00;94108.13;4972849;28;24496;-73
2022/09/28 08:37:43;;;;;;;3.75;1.42;;;;;;;8.66;100.00;94104.06;4979117;28;24976;-73
2022/09/28 08:40:19;;;;;;;2.78;1.08;;;;;;;8.76;100.00;94108.50;4971589;28;24467;-73
2022/09/28 08:42:46;;;;;;;4.32;1.40;;;;;;;8.92;100.00;94111.44;4980766;28;20831;-73
2022/09/28 08:45:18;;;;;;;3.15;1.20;;;;;;;8.95;100.00;94113.78;4975339;28;24432;-73
2022/09/28 08:50:40;;;;;;;4.75;1.27;;;;;;;8.72;100.00;94126.00;4971082;28;20750;-73
2022/09/28 08:53:19;;;;;;;2.97;1.23;;;;;;;8.87;100.00;94122.16;4979563;28;20736;-72
2022/09/28 08:55:48;;;;;;;3.38;1.50;;;;;;;8.80;100.00;94125.38;4973323;28;20741;-72
2022/09/28 08:58:18;;;;;;;3.63;1.02;;;;;;;8.93;100.00;94123.38;4979317;28;20824;-73
2022/09/28 09:00:47;;;;;;;4.00;1.27;;;;;;;9.05;100.00;94124.13;4973029;28;20770;-72
2022/09/28 09:03:17;;;;;;;2.70;1.05;;;;;;;9.20;100.00;94131.44;4979859;28;24983;-73
2022/09/28 09:05:57;;;;;;;3.73;1.30;;;;;;;9.27;100.00;94131.75;4974293;28;20849;-72
2022/09/28 09:08:41;;;;;;;6.97;1.30;;;;;;;9.29;100.00;94135.03;4980292;28;20780;-72
2022/09/28 09:11:20;;;;;;;5.32;1.50;;;;;;;9.34;100.00;94134.63;4972643;28;20645;-73
2022/09/28 09:14:00;;;;;;;3.92;1.70;;;;;;;9.18;100.00;94138.50;4970426;28;20713;-73
2022/09/28 09:16:35;;;;;;;4.05;1.30;;;;;;;9.04;100.00;94145.75;4975088;28;20776;-73
2022/09/28 09:19:14;;;;;;;4.70;1.83;;;;;;;9.08;100.00;94144.53;4976693;28;20827;-73
2022/09/28 09:21:45;;;;;;;3.35;1.77;;;;;;;9.26;100.00;94149.94;4980029;28;20663;-73
2022/09/28 09:24:23;;;;;;;4.80;1.55;;;;;;;8.98;100.00;94148.84;4974817;28;21093;-73
2022/09/28 09:27:01;;;;;;;3.25;1.38;;;;;;;9.10;100.00;94151.22;4973501;28;24519;-73
2022/09/28 09:29:45;;;;;;;3.70;1.30;;;;;;;9.20;100.00;94159.88;4968349;28;24438;-73
2022/09/28 09:32:26;;;;;;;4.90;1.40;;;;;;;9.13;100.00;94168.25;4982385;28;20776;-72
2022/09/28 09:35:19;;;;;;;5.03;1.33;;;;;;;9.32;100.00;94165.78;4977318;28;20862;-73
2022/09/28 09:38:01;;;;;;;5.05;1.77;;;;;;;9.19;100.00;94171.13;4964498;28;20803;-73
2022/09/28 09:40:43;;;;;;;4.18;1.70;;;;;;;9.07;100.00;94173.91;4972636;28;24437;-72
2022/09/28 09:43:41;;;;;;;3.75;1.60;;;;;;;9.17;100.00;94170.44;4972237;28;20652;-73
2022/09/28 09:46:16;;;;;;;4.38;1.75;;;;;;;9.19;100.00;94173.69;4977724;28;25053;-73
2022/09/28 09:48:49;;;;;;;5.50;1.60;;;;;;;9.07;100.00;94181.66;4972222;28;20821;-72
2022/09/28 09:51:23;;;;;;;5.85;2.05;;;;;;;9.36;100.00;94179.25;4985718;28;20815;-73
2022/09/28 09:53:58;;;;;;;6.83;2.00;;;;;;;9.49;100.00;94181.63;4972059;28;21250;-73
2022/09/28 09:56:30;;;;;;;7.60;2.03;;;;;;;9.48;100.00;94180.00;4981141;28;24453;-72
2022/09/28 09:59:05;;;;;;;6.60;1.90;;;;;;;9.35;100.00;94173.28;4973548;28;20671;-73
2022/09/28 10:01:35;;;;;;;4.95;1.65;;;;;;;9.47;100.00;94179.16;4968735;28;20708;-70
2022/09/28 10:04:04;;;;;;;9.38;1.60;;;;;;;9.36;100.00;94168.91;4973742;28;20812;-71
2022/09/28 10:06:34;;;;;;;6.10;1.77;;;;;;;9.51;100.00;94166.81;4967953;28;24441;-71
2022/09/28 10:09:04;;;;;;;6.65;2.33;;;;;;;9.56;100.00;94167.22;4974544;28;24460;-71
2022/09/28 10:11:35;;;;;;;8.67;1.60;;;;;;;9.36;100.00;94164.56;4970405;28;20720;-73
2022/09/28 10:14:04;;;;;;;3.33;1.40;;;;;;;9.49;100.00;94172.09;4977527;28;21095;-72
2022/09/28 10:16:32;;;;;;;3.10;1.20;;;;;;;9.47;100.00;94168.03;4984855;28;20875;-73
2022/09/28 10:19:00;;;;;;;9.20;1.73;;;;;;;9.51;100.00;94167.63;4975588;28;21315;-72
2022/09/28 10:21:27;;;;;;;4.32;1.85;;;;;;;9.53;100.00;94165.75;4967180;28;24436;-72
2022/09/28 10:23:56;;;;;;;3.88;1.40;;;;;;;9.48;100.00;94167.06;4974140;28;21168;-72
2022/09/28 10:26:27;;;;;;;4.38;1.50;;;;;;;9.51;100.00;94175.38;4982655;28;24441;-72
2022/09/28 10:28:58;;;;;;;2.83;1.15;;;;;;;9.47;100.00;94171.41;4975103;28;25015;-73
2022/09/28 10:31:37;;;;;;;6.72;1.58;;;;;;;9.43;100.00;94172.63;4975515;28;24436;-73
2022/09/28 10:34:05;;;;;;;3.22;1.40;;;;;;;9.61;100.00;94162.50;4975822;28;20727;-73
2022/09/28 10:36:37;;;;;;;5.53;1.23;;;;;;;9.54;100.00;94166.56;4974971;28;20817;-73
2022/09/28 10:39:04;;;;;;;4.87;1.73;;;;;;;9.61;100.00;94170.25;4981063;28;20807;-73
2022/09/28 10:41:31;;;;;;;5.82;2.00;;;;;;;9.69;100.00;94173.00;4970602;28;20816;-73
2022/09/28 10:44:05;;;;;;;5.18;1.75;;;;;;;9.77;100.00;94174.94;4975748;28;20805;-73
2022/09/28 10:46:38;;;;;;;5.50;1.75;;;;;;;9.82;100.00;94173.59;4981681;28;20757;-73
2022/09/28 10:49:08;;;;;;;4.20;1.90;;;;;;;9.74;100.00;94172.63;4976590;28;24800;-73
2022/09/28 10:51:42;;;;;;;6.70;1.90;;;;;;;10.02;100.00;94174.50;4979915;28;24500;-74
2022/09/28 10:54:15;;;;;;;3.75;1.70;;;;;;;9.93;100.00;94178.66;4976389;28;20723;-73
2022/09/28 10:56:43;;;;;;;4.55;2.30;;;;;;;10.07;100.00;94184.44;4970692;28;24947;-72
2022/09/28 10:59:24;;;;;;;5.05;2.00;;;;;;;9.99;100.00;94181.69;4977144;28;24444;-73
2022/09/28 11:01:55;;;;;;;5.32;1.98;;;;;;;10.02;100.00;94184.03;4971289;28;24425;-73
2022/09/28 11:04:26;;;;;;;3.25;1.55;;;;;;;9.86;100.00;94187.06;4977820;28;24437;-73
2022/09/28 11:06:58;;;;;;;3.93;1.23;;;;;;;9.94;100.00;94184.69;4971847;28;24433;-73
2022/09/28 11:09:28;;;;;;;3.50;1.42;;;;;;;9.94;100.00;94180.31;4978669;28;24437;-73
2022/09/28 11:11:55;;;;;;;6.20;2.20;;;;;;;9.99;100.00;94179.91;4971957;28;24438;-73
2022/09/28 11:14:27;;;;;;;5.07;1.40;;;;;;;9.98;100.00;94177.47;4978635;28;21121;-74
2022/09/28 11:17:17;;;;;;;3.10;1.20;;;;;;;9.91;100.00;94179.78;4972475;28;20731;-73
2022/09/28 11:19:44;;;;;;;3.70;1.17;;;;;;;10.01;100.00;94179.78;4967437;28;24446;-72
2022/09/28 11:22:24;;;;;;;6.95;1.20;;;;;;;10.13;100.00;94189.09;4973311;28;20785;-73
2022/09/28 11:24:51;;;;;;;5.30;1.80;;;;;;;10.09;100.00;94188.53;4977655;28;24500;-72
2022/09/28 11:27:24;;;;;;;4.40;1.27;;;;;;;9.94;100.00;94179.50;4975266;28;24505;-73
2022/09/28 11:29:57;;;;;;;3.23;1.10;;;;;;;9.99;100.00;94181.69;4978034;28;24473;-73
2022/09/28 11:32:31;;;;;;;4.53;1.30;;;;;;;9.87;100.00;94186.97;4982712;28;20786;-73
2022/09/28 11:34:59;;;;;;;8.23;1.42;;;;;;;10.14;100.00;94177.78;4981902;28;20685;-74
2022/09/28 11:37:48;;;;;;;2.87;1.10;;;;;;;10.01;100.00;94179.78;4974554;28;24865;-73
2022/09/28 11:40:26;;;;;;;5.50;1.48;;;;;;;10.03;100.00;94176.13;4968791;28;20716;-74
2022/09/28 11:43:05;;;;;;;5.18;1.55;;;;;;;9.98;100.00;94167.13;4973494;28;24448;-74
2022/09/28 11:45:47;;;;;;;5.53;1.20;;;;;;;10.10;100.00;94168.66;4968473;28;20746;-73
2022/09/28 11:48:18;;;;;;;4.88;1.40;;;;;;;9.83;100.00;94171.84;4980099;28;24444;-73
2022/09/28 11:50:48;;;;;;;4.90;1.30;;;;;;;10.03;100.00;94170.13;4971251;28;24444;-73
2022/09/28 11:53:22;;;;;;;4.57;1.30;;;;;;;10.02;100.00;94177.09;4978604;28;20776;-72
2022/09/28 11:55:54;;;;;;;4.28;1.70;;;;;;;10.13;100.00;94171.81;4972940;28;24835;-72
2022/09/28 11:58:27;;;;;;;9.75;1.40;;;;;;;10.10;100.00;94176.41;4978207;28;24892;-73
2022/09/28 12:01:00;;;;;;;2.28;1.10;;;;;;;9.99;100.00;94177.34;4973722;28;24444;-72